createdAt,value
2023-08-25T00:00:05.844Z,1011.65
2023-08-25T00:01:06.104Z,1011.63
2023-08-25T00:02:06.315Z,1011.60
2023-08-25T00:03:06.521Z,1011.65
2023-08-25T00:04:06.639Z,1011.57
2023-08-25T00:05:06.782Z,1011.55
2023-08-25T00:06:06.969Z,1011.51
2023-08-25T00:07:07.150Z,1011.45
2023-08-25T00:08:07.326Z,1011.39
2023-08-25T00:09:07.493Z,1011.35
2023-08-25T00:10:07.711Z,1011.33
2023-08-25T00:11:07.891Z,1011.22
2023-08-25T00:12:08.048Z,1011.23
2023-08-25T00:13:08.258Z,1011.23
2023-08-25T00:14:08.482Z,1011.23
2023-08-25T00:15:08.667Z,1011.21
2023-08-25T00:16:08.900Z,1011.21
2023-08-25T00:17:09.043Z,1011.22
2023-08-25T00:18:09.226Z,1011.21
2023-08-25T00:19:09.398Z,1011.20
2023-08-25T00:20:09.625Z,1011.19
2023-08-25T00:21:17.296Z,1011.23
2023-08-25T00:22:09.963Z,1011.25
2023-08-25T00:23:10.182Z,1011.26
2023-08-25T00:24:10.372Z,1011.32
2023-08-25T00:25:10.540Z,1011.39
2023-08-25T00:26:10.695Z,1011.39
2023-08-25T00:27:10.929Z,1011.40
2023-08-25T00:28:11.108Z,1011.41
2023-08-25T00:29:11.283Z,1011.38
2023-08-25T00:30:11.518Z,1011.37
2023-08-25T00:31:11.680Z,1011.36
2023-08-25T00:32:11.861Z,1011.34
2023-08-25T00:33:12.055Z,1011.32
2023-08-25T00:34:12.262Z,1011.29
2023-08-25T00:35:12.457Z,1011.25
2023-08-25T00:36:12.644Z,1011.26
2023-08-25T00:37:12.742Z,1011.21
2023-08-25T00:38:12.940Z,1011.19
2023-08-25T00:39:13.099Z,1011.17
2023-08-25T00:40:13.306Z,1011.14
2023-08-25T00:41:13.474Z,1011.14
2023-08-25T00:42:13.661Z,1011.17
2023-08-25T00:43:13.854Z,1011.15
2023-08-25T00:44:14.060Z,1011.16
2023-08-25T00:45:14.192Z,1011.14
2023-08-25T00:46:14.429Z,1011.14
2023-08-25T00:47:14.555Z,1011.15
2023-08-25T00:48:14.827Z,1011.17
2023-08-25T00:49:14.963Z,1011.20
2023-08-25T00:50:15.157Z,1011.19
2023-08-25T00:51:15.302Z,1011.14
2023-08-25T00:52:15.529Z,1011.15
2023-08-25T00:53:15.719Z,1011.15
2023-08-25T00:54:15.936Z,1011.12
2023-08-25T00:55:16.064Z,1011.11
2023-08-25T00:56:16.253Z,1011.04
2023-08-25T00:57:16.443Z,1011.03
2023-08-25T00:58:16.615Z,1011.00
2023-08-25T00:59:16.835Z,1011.01
2023-08-25T01:00:17.016Z,1010.95
2023-08-25T01:01:17.209Z,1010.91
2023-08-25T01:02:17.375Z,1010.86
2023-08-25T01:03:17.621Z,1010.81
2023-08-25T01:04:17.745Z,1010.75
2023-08-25T01:05:17.945Z,1010.72
2023-08-25T01:06:18.125Z,1010.65
2023-08-25T01:07:18.293Z,1010.64
2023-08-25T01:08:18.468Z,1010.53
2023-08-25T01:09:18.655Z,1010.52
2023-08-25T01:10:18.844Z,1010.48
2023-08-25T01:11:19.007Z,1010.50
2023-08-25T01:12:19.222Z,1010.46
2023-08-25T01:13:19.400Z,1010.43
2023-08-25T01:14:19.600Z,1010.44
2023-08-25T01:15:19.764Z,1010.45
2023-08-25T01:16:19.979Z,1010.48
2023-08-25T01:17:20.107Z,1010.48
2023-08-25T01:18:20.347Z,1010.48
2023-08-25T01:19:20.467Z,1010.52
2023-08-25T01:20:20.647Z,1010.51
2023-08-25T01:21:20.845Z,1010.52
2023-08-25T01:22:21.017Z,1010.50
2023-08-25T01:23:21.223Z,1010.49
2023-08-25T01:24:21.430Z,1010.48
2023-08-25T01:25:21.616Z,1010.52
2023-08-25T01:26:21.798Z,1010.53
2023-08-25T01:27:22.001Z,1010.52
2023-08-25T01:28:22.196Z,1010.52
2023-08-25T01:29:22.405Z,1010.53
2023-08-25T01:30:22.524Z,1010.49
2023-08-25T01:31:22.806Z,1010.44
2023-08-25T01:32:22.941Z,1010.39
2023-08-25T01:33:23.137Z,1010.40
2023-08-25T01:34:23.321Z,1010.34
2023-08-25T01:35:23.503Z,1010.32
2023-08-25T01:36:23.702Z,1010.34
2023-08-25T01:37:23.841Z,1010.35
2023-08-25T01:38:24.063Z,1010.40
2023-08-25T01:39:24.226Z,1010.40
2023-08-25T01:40:24.394Z,1010.44
2023-08-25T01:41:24.591Z,1010.47
2023-08-25T01:42:24.780Z,1010.47
2023-08-25T01:43:24.995Z,1010.51
2023-08-25T01:44:25.158Z,1010.45
2023-08-25T01:45:25.332Z,1010.50
2023-08-25T01:46:25.652Z,1010.48
2023-08-25T01:47:25.787Z,1010.46
2023-08-25T01:48:25.880Z,1010.42
2023-08-25T01:49:26.104Z,1010.42
2023-08-25T01:50:26.221Z,1010.41
2023-08-25T01:51:26.452Z,1010.43
2023-08-25T01:52:26.611Z,1010.43
2023-08-25T01:53:26.837Z,1010.41
2023-08-25T01:54:27.008Z,1010.39
2023-08-25T01:55:27.205Z,1010.38
2023-08-25T01:56:27.379Z,1010.38
2023-08-25T01:57:27.537Z,1010.36
2023-08-25T01:58:27.733Z,1010.34
2023-08-25T01:59:27.959Z,1010.34
2023-08-25T02:00:28.157Z,1010.33
2023-08-25T02:01:28.358Z,1010.30
2023-08-25T02:02:28.605Z,1010.23
2023-08-25T02:03:28.660Z,1010.26
2023-08-25T02:04:28.843Z,1010.22
2023-08-25T02:05:29.129Z,1010.21
2023-08-25T02:06:29.155Z,1010.24
2023-08-25T02:07:29.385Z,1010.21
2023-08-25T02:08:29.534Z,1010.18
2023-08-25T02:09:29.765Z,1010.12
2023-08-25T02:10:29.933Z,1010.12
2023-08-25T02:11:30.119Z,1010.15
2023-08-25T02:12:30.324Z,1010.16
2023-08-25T02:13:30.486Z,1010.14
2023-08-25T02:14:30.686Z,1010.15
2023-08-25T02:15:30.867Z,1010.16
2023-08-25T02:16:31.158Z,1010.15
2023-08-25T02:17:31.242Z,1010.11
2023-08-25T02:18:31.424Z,1010.09
2023-08-25T02:19:31.626Z,1010.08
2023-08-25T02:20:31.834Z,1010.06
2023-08-25T02:21:31.977Z,1010.10
2023-08-25T02:22:32.200Z,1010.13
2023-08-25T02:23:32.372Z,1010.13
2023-08-25T02:24:32.609Z,1010.12
2023-08-25T02:25:32.729Z,1010.14
2023-08-25T02:26:32.873Z,1010.17
2023-08-25T02:27:33.071Z,1010.18
2023-08-25T02:28:33.252Z,1010.23
2023-08-25T02:29:33.444Z,1010.18
2023-08-25T02:30:33.620Z,1010.19
2023-08-25T02:31:33.807Z,1010.16
2023-08-25T02:32:33.983Z,1010.18
2023-08-25T02:33:34.133Z,1010.15
2023-08-25T02:34:34.347Z,1010.12
2023-08-25T02:35:34.529Z,1010.08
2023-08-25T02:36:34.695Z,1010.07
2023-08-25T02:37:34.890Z,1010.11
2023-08-25T02:38:35.065Z,1010.09
2023-08-25T02:39:35.274Z,1010.07
2023-08-25T02:40:35.464Z,1010.02
2023-08-25T02:41:35.619Z,1010.01
2023-08-25T02:42:35.837Z,1009.95
2023-08-25T02:43:36.038Z,1009.97
2023-08-25T02:44:36.254Z,1009.94
2023-08-25T02:45:36.501Z,1009.89
2023-08-25T02:46:36.558Z,1009.91
2023-08-25T02:47:36.791Z,1009.89
2023-08-25T02:48:36.955Z,1009.87
2023-08-25T02:49:37.227Z,1009.87
2023-08-25T02:50:37.328Z,1009.88
2023-08-25T02:51:37.478Z,1009.88
2023-08-25T02:52:37.696Z,1009.86
2023-08-25T02:53:37.875Z,1009.85
2023-08-25T02:54:38.094Z,1009.80
2023-08-25T02:55:38.197Z,1009.82
2023-08-25T02:56:38.420Z,1009.78
2023-08-25T02:57:38.599Z,1009.82
2023-08-25T02:58:38.799Z,1009.79
2023-08-25T02:59:39.043Z,1009.82
2023-08-25T03:00:39.229Z,1009.81
2023-08-25T03:01:39.449Z,1009.82
2023-08-25T03:02:39.641Z,1009.81
2023-08-25T03:03:39.758Z,1009.83
2023-08-25T03:04:39.976Z,1009.83
2023-08-25T03:05:40.163Z,1009.83
2023-08-25T03:06:40.297Z,1009.83
2023-08-25T03:07:40.487Z,1009.79
2023-08-25T03:08:40.648Z,1009.78
2023-08-25T03:09:40.855Z,1009.78
2023-08-25T03:10:41.083Z,1009.78
2023-08-25T03:11:41.221Z,1009.80
2023-08-25T03:12:41.437Z,1009.83
2023-08-25T03:13:41.621Z,1009.83
2023-08-25T03:14:41.821Z,1009.81
2023-08-25T03:15:42.057Z,1009.84
2023-08-25T03:16:42.218Z,1009.83
2023-08-25T03:17:42.654Z,1009.84
2023-08-25T03:18:42.562Z,1009.88
2023-08-25T03:19:42.779Z,1009.87
2023-08-25T03:20:42.936Z,1009.91
2023-08-25T03:21:43.084Z,1009.89
2023-08-25T03:22:43.309Z,1009.93
2023-08-25T03:23:43.484Z,1009.95
2023-08-25T03:24:43.731Z,1009.91
2023-08-25T03:25:43.884Z,1009.93
2023-08-25T03:26:44.069Z,1009.91
2023-08-25T03:27:44.254Z,1009.94
2023-08-25T03:28:44.452Z,1009.94
2023-08-25T03:29:44.644Z,1009.97
2023-08-25T03:30:44.831Z,1009.96
2023-08-25T03:31:45.043Z,1009.92
2023-08-25T03:32:45.246Z,1009.96
2023-08-25T03:33:45.412Z,1009.90
2023-08-25T03:34:45.628Z,1009.86
2023-08-25T03:35:45.741Z,1009.91
2023-08-25T03:36:45.952Z,1009.93
2023-08-25T03:37:46.142Z,1009.88
2023-08-25T03:38:46.357Z,1009.94
2023-08-25T03:39:46.540Z,1009.89
2023-08-25T03:40:46.745Z,1009.87
2023-08-25T03:41:46.947Z,1009.93
2023-08-25T03:42:47.077Z,1009.96
2023-08-25T03:43:47.236Z,1009.96
2023-08-25T03:44:47.466Z,1009.94
2023-08-25T03:45:47.671Z,1009.91
2023-08-25T03:46:47.844Z,1009.89
2023-08-25T03:47:48.065Z,1009.92
2023-08-25T03:48:48.204Z,1009.99
2023-08-25T03:49:48.388Z,1010.00
2023-08-25T03:50:48.572Z,1010.02
2023-08-25T03:51:48.732Z,1010.01
2023-08-25T03:52:48.924Z,1010.06
2023-08-25T03:53:49.076Z,1010.03
2023-08-25T03:54:49.745Z,1010.04
2023-08-25T03:55:49.491Z,1010.06
2023-08-25T03:56:49.648Z,1010.01
2023-08-25T03:57:49.871Z,1010.09
2023-08-25T03:58:50.057Z,1010.09
2023-08-25T03:59:50.209Z,1010.06
2023-08-25T04:00:50.450Z,1010.07
2023-08-25T04:01:50.602Z,1010.03
2023-08-25T04:02:50.830Z,1009.99
2023-08-25T04:03:51.038Z,1010.03
2023-08-25T04:04:51.177Z,1010.00
2023-08-25T04:05:51.314Z,1009.98
2023-08-25T04:06:51.498Z,1009.99
2023-08-25T04:07:52.036Z,1009.99
2023-08-25T04:08:51.838Z,1009.96
2023-08-25T04:09:52.020Z,1009.94
2023-08-25T04:10:52.223Z,1009.94
2023-08-25T04:11:52.431Z,1009.95
2023-08-25T04:12:52.580Z,1009.95
2023-08-25T04:13:52.744Z,1009.97
2023-08-25T04:14:52.930Z,1009.96
2023-08-25T04:15:53.593Z,1009.99
2023-08-25T04:16:53.485Z,1009.96
2023-08-25T04:17:53.877Z,1009.98
2023-08-25T04:18:53.661Z,1009.99
2023-08-25T04:19:53.879Z,1009.93
2023-08-25T04:20:54.076Z,1009.93
2023-08-25T04:21:54.199Z,1009.94
2023-08-25T04:22:54.362Z,1009.92
2023-08-25T04:23:54.523Z,1009.95
2023-08-25T04:24:54.726Z,1009.95
2023-08-25T04:25:54.910Z,1009.93
2023-08-25T04:26:55.074Z,1009.92
2023-08-25T04:27:55.566Z,1009.89
2023-08-25T04:28:55.435Z,1009.89
2023-08-25T04:29:55.618Z,1009.84
2023-08-25T04:30:55.805Z,1009.87
2023-08-25T04:31:55.982Z,1009.85
2023-08-25T04:32:56.193Z,1009.89
2023-08-25T04:33:56.331Z,1009.84
2023-08-25T04:34:56.564Z,1009.88
2023-08-25T04:35:56.695Z,1009.88
2023-08-25T04:36:56.866Z,1009.90
2023-08-25T04:37:57.080Z,1009.87
2023-08-25T04:38:57.290Z,1009.89
2023-08-25T04:39:57.507Z,1009.94
2023-08-25T04:40:57.690Z,1009.90
2023-08-25T04:41:57.858Z,1009.92
2023-08-25T04:42:58.057Z,1009.85
2023-08-25T04:43:58.279Z,1009.88
2023-08-25T04:44:58.407Z,1009.89
2023-08-25T04:45:58.581Z,1009.91
2023-08-25T04:46:58.757Z,1009.86
2023-08-25T04:47:58.938Z,1009.89
2023-08-25T04:48:59.117Z,1009.86
2023-08-25T04:49:59.332Z,1009.88
2023-08-25T04:50:59.489Z,1009.85
2023-08-25T04:51:59.668Z,1009.87
2023-08-25T04:52:59.824Z,1009.86
2023-08-25T04:54:00.027Z,1009.84
2023-08-25T04:55:00.208Z,1009.82
2023-08-25T04:56:00.379Z,1009.85
2023-08-25T04:57:00.540Z,1009.87
2023-08-25T04:58:00.730Z,1009.83
2023-08-25T04:59:00.928Z,1009.82
2023-08-25T05:00:01.132Z,1009.79
2023-08-25T05:01:01.374Z,1009.80
2023-08-25T05:02:01.467Z,1009.76
2023-08-25T05:03:01.744Z,1009.77
2023-08-25T05:04:01.890Z,1009.72
2023-08-25T05:05:02.017Z,1009.73
2023-08-25T05:06:02.174Z,1009.76
2023-08-25T05:07:02.371Z,1009.78
2023-08-25T05:08:02.531Z,1009.77
2023-08-25T05:09:02.729Z,1009.79
2023-08-25T05:10:02.918Z,1009.81
2023-08-25T05:11:03.164Z,1009.80
2023-08-25T05:12:03.289Z,1009.80
2023-08-25T05:13:03.447Z,1009.81
2023-08-25T05:14:03.645Z,1009.85
2023-08-25T05:15:03.832Z,1009.80
2023-08-25T05:16:04.043Z,1009.77
2023-08-25T05:17:04.168Z,1009.78
2023-08-25T05:18:04.393Z,1009.77
2023-08-25T05:19:04.530Z,1009.76
2023-08-25T05:20:04.754Z,1009.78
2023-08-25T05:21:04.935Z,1009.75
2023-08-25T05:22:05.124Z,1009.76
2023-08-25T05:23:05.262Z,1009.76
2023-08-25T05:24:05.474Z,1009.74
2023-08-25T05:25:05.673Z,1009.77
2023-08-25T05:26:05.832Z,1009.78
2023-08-25T05:27:05.991Z,1009.75
2023-08-25T05:28:06.168Z,1009.77
2023-08-25T05:29:06.391Z,1009.76
2023-08-25T05:30:06.583Z,1009.72
2023-08-25T05:31:06.801Z,1009.73
2023-08-25T05:32:06.942Z,1009.68
2023-08-25T05:33:07.140Z,1009.69
2023-08-25T05:34:07.297Z,1009.67
2023-08-25T05:35:07.477Z,1009.67
2023-08-25T05:36:07.697Z,1009.72
2023-08-25T05:37:07.845Z,1009.70
2023-08-25T05:38:08.037Z,1009.69
2023-08-25T05:39:09.108Z,1009.66
2023-08-25T05:40:08.419Z,1009.72
2023-08-25T05:41:08.570Z,1009.68
2023-08-25T05:42:08.761Z,1009.70
2023-08-25T05:43:08.964Z,1009.68
2023-08-25T05:44:09.097Z,1009.70
2023-08-25T05:45:09.271Z,1009.71
2023-08-25T05:46:09.510Z,1009.75
2023-08-25T05:47:09.621Z,1009.73
2023-08-25T05:48:09.861Z,1009.76
2023-08-25T05:49:10.021Z,1009.76
2023-08-25T05:50:10.186Z,1009.75
2023-08-25T05:51:10.374Z,1009.76
2023-08-25T05:52:10.544Z,1009.77
2023-08-25T05:53:10.752Z,1009.74
2023-08-25T05:54:10.913Z,1009.75
2023-08-25T05:55:11.095Z,1009.71
2023-08-25T05:56:11.284Z,1009.70
2023-08-25T05:57:11.462Z,1009.72
2023-08-25T05:58:11.666Z,1009.65
2023-08-25T05:59:11.846Z,1009.68
2023-08-25T06:00:12.068Z,1009.66
2023-08-25T06:01:12.290Z,1009.66
2023-08-25T06:02:12.409Z,1009.69
2023-08-25T06:03:12.637Z,1009.65
2023-08-25T06:04:12.844Z,1009.64
2023-08-25T06:05:12.995Z,1009.63
2023-08-25T06:06:13.172Z,1009.61
2023-08-25T06:07:13.406Z,1009.61
2023-08-25T06:08:13.567Z,1009.56
2023-08-25T06:09:13.737Z,1009.59
2023-08-25T06:10:13.944Z,1009.58
2023-08-25T06:11:14.106Z,1009.58
2023-08-25T06:12:14.297Z,1009.60
2023-08-25T06:13:14.509Z,1009.64
2023-08-25T06:14:14.664Z,1009.63
2023-08-25T06:15:14.828Z,1009.63
2023-08-25T06:16:15.052Z,1009.65
2023-08-25T06:17:15.207Z,1009.64
2023-08-25T06:18:15.423Z,1009.65
2023-08-25T06:19:15.577Z,1009.69
2023-08-25T06:20:15.771Z,1009.70
2023-08-25T06:21:15.955Z,1009.67
2023-08-25T06:22:16.212Z,1009.66
2023-08-25T06:23:16.346Z,1009.67
2023-08-25T06:24:16.505Z,1009.61
2023-08-25T06:25:16.734Z,1009.62
2023-08-25T06:26:16.923Z,1009.66
2023-08-25T06:27:17.121Z,1009.59
2023-08-25T06:28:17.342Z,1009.58
2023-08-25T06:29:17.485Z,1009.56
2023-08-25T06:30:17.686Z,1009.56
2023-08-25T06:31:17.949Z,1009.54
2023-08-25T06:32:18.046Z,1009.54
2023-08-25T06:33:18.249Z,1009.55
2023-08-25T06:34:18.400Z,1009.58
2023-08-25T06:35:18.579Z,1009.62
2023-08-25T06:36:18.784Z,1009.59
2023-08-25T06:37:18.950Z,1009.62
2023-08-25T06:38:19.210Z,1009.60
2023-08-25T06:39:19.323Z,1009.64
2023-08-25T06:40:19.531Z,1009.64
2023-08-25T06:41:19.692Z,1009.62
2023-08-25T06:42:19.891Z,1009.63
2023-08-25T06:43:20.070Z,1009.62
2023-08-25T06:44:20.263Z,1009.62
2023-08-25T06:45:20.438Z,1009.59
2023-08-25T06:46:20.661Z,1009.66
2023-08-25T06:47:20.833Z,1009.68
2023-08-25T06:48:21.029Z,1009.69
2023-08-25T06:49:21.211Z,1009.73
2023-08-25T06:50:21.385Z,1009.74
2023-08-25T06:51:21.583Z,1009.69
2023-08-25T06:52:21.774Z,1009.70
2023-08-25T06:53:21.930Z,1009.72
2023-08-25T06:54:22.119Z,1009.73
2023-08-25T06:55:22.298Z,1009.74
2023-08-25T06:56:22.479Z,1009.76
2023-08-25T06:57:22.671Z,1009.76
2023-08-25T06:58:22.854Z,1009.72
2023-08-25T06:59:23.067Z,1009.72
2023-08-25T07:00:23.208Z,1009.75
2023-08-25T07:01:23.446Z,1009.70
2023-08-25T07:02:23.621Z,1009.71
2023-08-25T07:03:23.796Z,1009.69
2023-08-25T07:04:23.951Z,1009.73
2023-08-25T07:05:24.159Z,1009.67
2023-08-25T07:06:24.329Z,1009.70
2023-08-25T07:07:24.545Z,1009.71
2023-08-25T07:08:24.680Z,1009.69
2023-08-25T07:09:24.861Z,1009.71
2023-08-25T07:10:25.053Z,1009.68
2023-08-25T07:11:25.283Z,1009.73
2023-08-25T07:12:25.425Z,1009.73
2023-08-25T07:13:25.644Z,1009.76
2023-08-25T07:14:25.782Z,1009.79
2023-08-25T07:15:26.007Z,1009.80
2023-08-25T07:16:26.155Z,1009.81
2023-08-25T07:17:26.361Z,1009.82
2023-08-25T07:18:26.562Z,1009.84
2023-08-25T07:19:26.737Z,1009.84
2023-08-25T07:20:26.915Z,1009.79
2023-08-25T07:21:27.089Z,1009.78
2023-08-25T07:22:27.307Z,1009.78
2023-08-25T07:23:27.953Z,1009.78
2023-08-25T07:24:27.622Z,1009.74
2023-08-25T07:25:27.843Z,1009.78
2023-08-25T07:26:28.012Z,1009.72
2023-08-25T07:27:28.202Z,1009.75
2023-08-25T07:28:28.432Z,1009.79
2023-08-25T07:29:28.591Z,1009.76
2023-08-25T07:30:28.755Z,1009.75
2023-08-25T07:31:28.943Z,1009.76
2023-08-25T07:32:29.141Z,1009.79
2023-08-25T07:33:29.324Z,1009.78
2023-08-25T07:34:29.483Z,1009.77
2023-08-25T07:35:29.639Z,1009.77
2023-08-25T07:36:29.819Z,1009.85
2023-08-25T07:37:30.031Z,1009.90
2023-08-25T07:38:30.251Z,1009.89
2023-08-25T07:39:30.379Z,1009.93
2023-08-25T07:40:30.584Z,1009.88
2023-08-25T07:41:30.772Z,1009.93
2023-08-25T07:42:30.952Z,1009.90
2023-08-25T07:43:31.196Z,1009.92
2023-08-25T07:44:31.344Z,1009.91
2023-08-25T07:45:31.519Z,1009.92
2023-08-25T07:46:31.751Z,1009.91
2023-08-25T07:47:31.924Z,1009.91
2023-08-25T07:48:32.115Z,1009.82
2023-08-25T07:49:32.249Z,1009.82
2023-08-25T07:50:32.452Z,1009.83
2023-08-25T07:52:33.827Z,1009.79
2023-08-25T07:53:33.479Z,1009.75
2023-08-25T07:54:33.193Z,1009.73
2023-08-25T07:55:33.375Z,1009.79
2023-08-25T07:56:33.582Z,1009.74
2023-08-25T07:57:33.715Z,1009.78
2023-08-25T07:58:33.891Z,1009.83
2023-08-25T07:59:34.080Z,1009.82
2023-08-25T08:00:34.288Z,1009.82
2023-08-25T08:01:34.468Z,1009.84
2023-08-25T08:02:34.702Z,1009.90
2023-08-25T08:03:34.862Z,1009.92
2023-08-25T08:04:35.012Z,1009.99
2023-08-25T08:05:35.200Z,1009.98
2023-08-25T08:06:35.402Z,1009.99
2023-08-25T08:07:35.551Z,1010.05
2023-08-25T08:08:35.772Z,1010.06
2023-08-25T08:09:36.016Z,1010.04
2023-08-25T08:10:36.158Z,1010.06
2023-08-25T08:11:36.366Z,1010.01
2023-08-25T08:12:36.489Z,1010.02
2023-08-25T08:13:36.678Z,1009.98
2023-08-25T08:14:45.629Z,1009.92
2023-08-25T08:15:38.062Z,1009.99
2023-08-25T08:16:38.455Z,1009.93
2023-08-25T08:17:37.450Z,1009.93
2023-08-25T08:18:37.692Z,1009.96
2023-08-25T08:19:37.826Z,1009.97
2023-08-25T08:20:38.026Z,1009.97
2023-08-25T08:21:38.191Z,1010.02
2023-08-25T08:22:38.453Z,1010.03
2023-08-25T08:23:38.580Z,1009.99
2023-08-25T08:24:50.440Z,1010.02
2023-08-25T08:25:39.934Z,1010.00
2023-08-25T08:26:39.122Z,1010.03
2023-08-25T08:27:39.295Z,1010.06
2023-08-25T08:28:39.482Z,1010.06
2023-08-25T08:29:39.738Z,1010.03
2023-08-25T08:30:39.895Z,1009.97
2023-08-25T08:31:40.023Z,1010.02
2023-08-25T08:32:40.379Z,1010.03
2023-08-25T08:33:40.447Z,1010.03
2023-08-25T08:34:40.590Z,1010.01
2023-08-25T08:35:40.771Z,1010.05
2023-08-25T08:36:40.952Z,1010.04
2023-08-25T08:37:41.137Z,1010.06
2023-08-25T08:38:41.320Z,1010.05
2023-08-25T08:39:41.534Z,1010.13
2023-08-25T08:40:41.716Z,1010.13
2023-08-25T08:41:41.853Z,1010.14
2023-08-25T08:42:42.032Z,1010.16
2023-08-25T08:43:42.191Z,1010.17
2023-08-25T08:44:42.483Z,1010.16
2023-08-25T08:45:42.591Z,1010.24
2023-08-25T08:46:42.793Z,1010.20
2023-08-25T08:47:43.005Z,1010.19
2023-08-25T08:48:43.128Z,1010.18
2023-08-25T08:49:43.287Z,1010.20
2023-08-25T08:50:43.478Z,1010.18
2023-08-25T08:51:43.646Z,1010.19
2023-08-25T08:52:43.825Z,1010.22
2023-08-25T08:53:44.024Z,1010.18
2023-08-25T08:54:44.205Z,1010.16
2023-08-25T08:55:44.401Z,1010.14
2023-08-25T08:56:44.602Z,1010.08
2023-08-25T08:57:44.743Z,1010.05
2023-08-25T08:58:44.926Z,1010.06
2023-08-25T08:59:45.134Z,1010.12
2023-08-25T09:00:45.369Z,1010.11
2023-08-25T09:01:45.454Z,1010.13
2023-08-25T09:02:45.729Z,1010.15
2023-08-25T09:03:45.829Z,1010.15
2023-08-25T09:04:46.084Z,1010.19
2023-08-25T09:05:46.231Z,1010.18
2023-08-25T09:06:46.395Z,1010.15
2023-08-25T09:07:46.606Z,1010.16
2023-08-25T09:08:46.751Z,1010.15
2023-08-25T09:09:49.863Z,1010.17
2023-08-25T09:10:47.157Z,1010.18
2023-08-25T09:11:47.350Z,1010.18
2023-08-25T09:12:47.550Z,1010.24
2023-08-25T09:13:47.707Z,1010.23
2023-08-25T09:14:47.897Z,1010.31
2023-08-25T09:15:48.130Z,1010.32
2023-08-25T09:16:48.357Z,1010.33
2023-08-25T09:17:48.534Z,1010.37
2023-08-25T09:18:48.662Z,1010.42
2023-08-25T09:19:48.889Z,1010.35
2023-08-25T09:20:49.057Z,1010.33
2023-08-25T09:21:49.248Z,1010.32
2023-08-25T09:22:49.450Z,1010.32
2023-08-25T09:23:49.642Z,1010.31
2023-08-25T09:24:49.794Z,1010.32
2023-08-25T09:25:50.022Z,1010.34
2023-08-25T09:26:50.385Z,1010.35
2023-08-25T09:27:50.358Z,1010.36
2023-08-25T09:28:50.580Z,1010.38
2023-08-25T09:29:50.743Z,1010.40
2023-08-25T09:30:50.984Z,1010.39
2023-08-25T09:31:51.184Z,1010.41
2023-08-25T09:32:52.564Z,1010.34
2023-08-25T09:33:51.459Z,1010.37
2023-08-25T09:34:51.668Z,1010.36
2023-08-25T09:35:51.839Z,1010.36
2023-08-25T09:36:52.042Z,1010.40
2023-08-25T09:37:52.641Z,1010.39
2023-08-25T09:38:55.633Z,1010.42
2023-08-25T09:39:52.590Z,1010.40
2023-08-25T09:40:52.798Z,1010.38
2023-08-25T09:41:53.050Z,1010.32
2023-08-25T09:42:53.126Z,1010.31
2023-08-25T09:43:53.297Z,1010.35
2023-08-25T09:44:53.476Z,1010.38
2023-08-25T09:45:53.679Z,1010.43
2023-08-25T09:46:53.868Z,1010.46
2023-08-25T09:47:54.347Z,1010.47
2023-08-25T09:48:54.192Z,1010.50
2023-08-25T09:49:54.894Z,1010.49
2023-08-25T09:50:54.574Z,1010.53
2023-08-25T09:51:54.777Z,1010.53
2023-08-25T09:52:54.982Z,1010.56
2023-08-25T09:53:55.176Z,1010.58
2023-08-25T09:54:55.307Z,1010.62
2023-08-25T09:55:55.514Z,1010.63
2023-08-25T09:56:55.718Z,1010.58
2023-08-25T09:57:56.117Z,1010.60
2023-08-25T09:58:56.106Z,1010.59
2023-08-25T09:59:56.258Z,1010.54
2023-08-25T10:00:56.441Z,1010.50
2023-08-25T10:01:56.692Z,1010.52
2023-08-25T10:02:56.860Z,1010.48
2023-08-25T10:03:57.041Z,1010.48
2023-08-25T10:04:57.237Z,1010.47
2023-08-25T10:05:57.384Z,1010.45
2023-08-25T10:06:57.529Z,1010.48
2023-08-25T10:07:57.778Z,1010.51
2023-08-25T10:08:57.922Z,1010.53
2023-08-25T10:09:58.173Z,1010.49
2023-08-25T10:10:58.266Z,1010.52
2023-08-25T10:11:58.422Z,1010.44
2023-08-25T10:12:58.628Z,1010.42
2023-08-25T10:13:58.795Z,1010.46
2023-08-25T10:14:59.017Z,1010.46
2023-08-25T10:15:59.275Z,1010.49
2023-08-25T10:16:59.391Z,1010.43
2023-08-25T10:17:59.599Z,1010.40
2023-08-25T10:18:59.756Z,1010.41
2023-08-25T10:19:59.949Z,1010.41
2023-08-25T10:21:00.147Z,1010.42
2023-08-25T10:22:00.310Z,1010.45
2023-08-25T10:23:00.519Z,1010.48
2023-08-25T10:24:00.685Z,1010.52
2023-08-25T10:25:00.850Z,1010.51
2023-08-25T10:26:01.070Z,1010.52
2023-08-25T10:27:01.220Z,1010.47
2023-08-25T10:28:01.415Z,1010.50
2023-08-25T10:29:01.609Z,1010.49
2023-08-25T10:30:01.816Z,1010.56
2023-08-25T10:31:01.973Z,1010.52
2023-08-25T10:32:02.218Z,1010.52
2023-08-25T10:33:02.395Z,1010.54
2023-08-25T10:34:02.529Z,1010.58
2023-08-25T10:35:02.729Z,1010.59
2023-08-25T10:36:02.894Z,1010.60
2023-08-25T10:37:03.106Z,1010.57
2023-08-25T10:38:03.266Z,1010.60
2023-08-25T10:39:03.430Z,1010.59
2023-08-25T10:40:03.625Z,1010.59
2023-08-25T10:41:03.795Z,1010.61
2023-08-25T10:42:04.003Z,1010.61
2023-08-25T10:43:04.176Z,1010.59
2023-08-25T10:44:04.346Z,1010.60
2023-08-25T10:45:04.514Z,1010.56
2023-08-25T10:46:04.768Z,1010.59
2023-08-25T10:47:04.923Z,1010.58
2023-08-25T10:48:05.190Z,1010.54
2023-08-25T10:49:05.259Z,1010.56
2023-08-25T10:50:05.454Z,1010.52
2023-08-25T10:51:05.682Z,1010.53
2023-08-25T10:52:05.890Z,1010.48
2023-08-25T10:53:06.015Z,1010.52
2023-08-25T10:54:06.200Z,1010.51
2023-08-25T10:55:06.378Z,1010.51
2023-08-25T10:56:07.558Z,1010.52
2023-08-25T10:57:06.802Z,1010.51
2023-08-25T10:58:06.934Z,1010.53
2023-08-25T10:59:07.121Z,1010.56
2023-08-25T11:00:07.319Z,1010.53
2023-08-25T11:01:07.513Z,1010.52
2023-08-25T11:02:07.678Z,1010.54
2023-08-25T11:03:09.005Z,1010.55
2023-08-25T11:04:08.411Z,1010.56
2023-08-25T11:05:08.231Z,1010.56
2023-08-25T11:06:08.446Z,1010.63
2023-08-25T11:07:08.649Z,1010.57
2023-08-25T11:08:08.810Z,1010.58
2023-08-25T11:09:08.978Z,1010.60
2023-08-25T11:10:09.139Z,1010.61
2023-08-25T11:11:09.337Z,1010.59
2023-08-25T11:12:09.556Z,1010.57
2023-08-25T11:13:11.170Z,1010.60
2023-08-25T11:14:09.909Z,1010.59
2023-08-25T11:15:10.146Z,1010.64
2023-08-25T11:16:10.361Z,1010.61
2023-08-25T11:17:10.496Z,1010.63
2023-08-25T11:18:10.810Z,1010.57
2023-08-25T11:19:10.896Z,1010.58
2023-08-25T11:20:11.070Z,1010.57
2023-08-25T11:21:11.270Z,1010.52
2023-08-25T11:22:11.510Z,1010.46
2023-08-25T11:23:20.024Z,1010.47
2023-08-25T11:24:12.832Z,1010.47
2023-08-25T11:25:11.975Z,1010.47
2023-08-25T11:26:12.186Z,1010.45
2023-08-25T11:27:12.429Z,1010.44
2023-08-25T11:28:12.526Z,1010.47
2023-08-25T11:29:12.706Z,1010.42
2023-08-25T11:30:12.890Z,1010.35
2023-08-25T11:31:13.142Z,1010.36
2023-08-25T11:32:13.257Z,1010.29
2023-08-25T11:33:13.444Z,1010.28
2023-08-25T11:34:15.672Z,1010.31
2023-08-25T11:35:13.800Z,1010.27
2023-08-25T11:36:13.981Z,1010.27
2023-08-25T11:37:14.181Z,1010.29
2023-08-25T11:38:14.352Z,1010.30
2023-08-25T11:39:14.515Z,1010.29
2023-08-25T11:40:14.692Z,1010.32
2023-08-25T11:41:14.911Z,1010.31
2023-08-25T11:42:15.118Z,1010.34
2023-08-25T11:43:15.267Z,1010.33
2023-08-25T11:44:15.444Z,1010.30
2023-08-25T11:45:15.622Z,1010.27
2023-08-25T11:46:15.834Z,1010.32
2023-08-25T11:47:16.070Z,1010.30
2023-08-25T11:48:16.116Z,1010.29
2023-08-25T11:49:16.346Z,1010.27
2023-08-25T11:50:16.551Z,1010.28
2023-08-25T11:51:16.739Z,1010.30
2023-08-25T11:52:16.925Z,1010.29
2023-08-25T11:53:17.120Z,1010.33
2023-08-25T11:54:17.340Z,1010.25
2023-08-25T11:55:17.451Z,1010.26
2023-08-25T11:56:17.694Z,1010.26
2023-08-25T11:57:17.834Z,1010.31
2023-08-25T11:58:18.015Z,1010.32
2023-08-25T11:59:18.265Z,1010.35
2023-08-25T12:00:18.418Z,1010.36
2023-08-25T12:01:18.655Z,1010.41
2023-08-25T12:02:18.744Z,1010.41
2023-08-25T12:03:18.985Z,1010.51
2023-08-25T12:04:19.086Z,1010.49
2023-08-25T12:05:19.305Z,1010.56
2023-08-25T12:06:19.484Z,1010.51
2023-08-25T12:07:19.682Z,1010.56
2023-08-25T12:08:19.837Z,1010.54